Time;durP1;ratioP1;P1;durP2;ratioP2;P2;SDS_P1;SDS_P2;PMS_P1;PMS_P2;Temp;Humidity;BMP_temperature;BMP_pressure;BME280_temperature;BME280_humidity;BME280_pressure;Samples;Min_cycle;Max_cycle;Signal;HPM_P1;HPM_P2
2021/04/05 00:00:07;;;;;;;33.90;20.47;;;4.90;99.90;;;;;;4973332;28;20433;-75
2021/04/05 00:02:32;;;;;;;32.10;20.70;;;4.90;99.90;;;;;;4973966;28;20431;-75
2021/04/05 00:04:58;;;;;;;40.40;20.73;;;4.90;99.90;;;;;;4988781;28;20447;-75
2021/04/05 00:07:23;;;;;;;31.60;19.43;;;5.00;99.90;;;;;;4973564;28;20196;-75
2021/04/05 00:09:49;;;;;;;34.00;19.07;;;5.00;99.90;;;;;;4972868;28;20194;-75
2021/04/05 00:12:14;;;;;;;35.07;21.27;;;4.90;99.90;;;;;;4972861;28;20228;-75
2021/04/05 00:14:42;;;;;;;41.37;22.03;;;4.90;99.90;;;;;;4990326;28;20569;-75
2021/04/05 00:17:07;;;;;;;31.03;19.50;;;4.90;99.90;;;;;;4992553;28;20506;-76
2021/04/05 00:19:34;;;;;;;35.20;20.07;;;4.90;99.90;;;;;;4983576;28;20437;-76
2021/04/05 00:21:59;;;;;;;28.17;19.23;;;5.00;99.90;;;;;;4973285;28;20196;-75
2021/04/05 00:24:25;;;;;;;34.10;21.33;;;4.90;99.90;;;;;;4988903;28;20423;-75
2021/04/05 00:26:51;;;;;;;39.47;19.50;;;5.00;99.90;;;;;;4992641;28;20197;-75
2021/04/05 00:29:16;;;;;;;41.03;20.90;;;5.00;99.90;;;;;;4973265;28;20851;-76
2021/04/05 00:31:42;;;;;;;49.17;21.87;;;5.00;99.90;;;;;;4973282;28;20180;-75
2021/04/05 00:34:07;;;;;;;37.60;21.03;;;5.00;99.90;;;;;;4986277;28;20176;-75
2021/04/05 00:36:34;;;;;;;34.63;21.30;;;5.10;99.90;;;;;;4992459;28;20224;-75
2021/04/05 00:39:00;;;;;;;37.70;23.43;;;5.20;99.90;;;;;;4992139;28;20224;-74
2021/04/05 00:41:25;;;;;;;35.43;21.13;;;5.20;99.90;;;;;;4991636;28;20956;-74
2021/04/05 00:43:51;;;;;;;34.97;22.07;;;5.20;99.90;;;;;;4981138;28;20182;-75
2021/04/05 00:46:25;;;;;;;35.80;19.90;;;5.20;99.90;;;;;;4987339;28;20586;-74
2021/04/05 00:48:52;;;;;;;32.50;21.30;;;5.30;99.90;;;;;;4992128;28;20427;-75
2021/04/05 00:51:20;;;;;;;39.57;19.97;;;5.30;99.90;;;;;;5026467;28;21022;-75
2021/04/05 00:53:47;;;;;;;36.13;21.80;;;5.40;99.90;;;;;;5001176;28;20961;-75
2021/04/05 00:56:22;;;;;;;32.57;21.67;;;5.40;99.90;;;;;;4976744;28;20450;-75
2021/04/05 00:58:49;;;;;;;31.90;20.20;;;5.30;99.90;;;;;;4976720;28;20487;-75
2021/04/05 01:01:21;;;;;;;40.50;21.17;;;5.40;99.90;;;;;;4975706;28;20436;-74
2021/04/05 01:03:48;;;;;;;37.63;19.53;;;5.50;99.90;;;;;;5001596;28;20438;-75
2021/04/05 01:06:27;;;;;;;37.87;20.63;;;5.50;99.90;;;;;;4995407;28;21045;-75
2021/04/05 01:08:53;;;;;;;40.63;20.90;;;5.50;99.90;;;;;;5027324;28;20424;-74
2021/04/05 01:11:20;;;;;;;35.73;21.73;;;5.50;99.90;;;;;;4980034;28;20520;-75
2021/04/05 01:13:47;;;;;;;36.17;20.13;;;5.50;99.90;;;;;;4986132;28;20419;-75
2021/04/05 01:16:13;;;;;;;33.20;22.50;;;5.60;99.90;;;;;;4988699;28;20416;-75
2021/04/05 01:18:41;;;;;;;34.97;20.17;;;5.70;99.90;;;;;;4975870;28;20453;-75
2021/04/05 01:21:07;;;;;;;39.73;20.07;;;5.70;99.90;;;;;;4990413;28;20792;-75
2021/04/05 01:23:33;;;;;;;32.10;21.70;;;5.80;99.90;;;;;;4984480;28;20420;-75
2021/04/05 01:25:59;;;;;;;32.40;20.37;;;5.80;99.90;;;;;;4982751;28;20492;-75
2021/04/05 01:28:25;;;;;;;34.30;20.80;;;5.90;99.90;;;;;;4985009;28;20458;-75
2021/04/05 01:30:57;;;;;;;33.50;18.93;;;5.90;99.90;;;;;;4980211;28;20463;-75
2021/04/05 01:33:22;;;;;;;29.97;17.10;;;5.90;99.90;;;;;;4978372;28;20172;-75
2021/04/05 01:35:51;;;;;;;32.87;18.33;;;6.00;99.90;;;;;;5010322;28;20785;-75
2021/04/05 01:38:24;;;;;;;36.67;21.00;;;6.00;99.90;;;;;;4982673;28;20260;-75
2021/04/05 01:40:53;;;;;;;39.57;19.80;;;6.10;99.90;;;;;;4979032;28;20492;-75
2021/04/05 01:43:19;;;;;;;36.33;20.63;;;6.00;99.90;;;;;;4978365;28;20455;-76
2021/04/05 01:45:45;;;;;;;33.17;20.10;;;6.00;99.90;;;;;;4978609;28;21476;-76
2021/04/05 01:48:13;;;;;;;34.17;20.40;;;6.00;99.90;;;;;;4977329;28;20209;-76
2021/04/05 01:50:41;;;;;;;38.00;19.90;;;6.10;99.90;;;;;;4976498;28;20186;-76
2021/04/05 01:53:07;;;;;;;34.00;18.40;;;6.20;99.90;;;;;;4978902;28;20949;-76
2021/04/05 01:55:33;;;;;;;28.77;18.90;;;6.30;99.90;;;;;;4976482;28;20928;-77
2021/04/05 01:57:59;;;;;;;31.60;19.27;;;6.10;99.90;;;;;;4978092;28;20832;-76
2021/04/05 02:00:32;;;;;;;31.10;20.90;;;6.20;99.90;;;;;;4974662;28;20463;-76
2021/04/05 02:03:05;;;;;;;40.63;20.57;;;6.20;99.90;;;;;;4979618;28;20435;-76
2021/04/05 02:05:31;;;;;;;32.90;19.10;;;6.20;99.90;;;;;;4983331;28;20432;-76
2021/04/05 02:07:57;;;;;;;35.27;20.27;;;6.30;99.90;;;;;;5022224;28;20499;-76
2021/04/05 02:10:25;;;;;;;32.63;20.23;;;6.40;99.90;;;;;;4975488;28;20965;-76
2021/04/05 02:12:52;;;;;;;38.87;21.07;;;6.30;99.90;;;;;;5004868;28;20177;-76
2021/04/05 02:15:18;;;;;;;33.87;18.77;;;6.40;99.90;;;;;;4982976;28;20431;-77
2021/04/05 02:17:45;;;;;;;32.27;19.20;;;6.30;99.90;;;;;;4976068;28;20913;-76
2021/04/05 02:20:13;;;;;;;32.80;17.53;;;6.50;99.90;;;;;;4987482;28;20451;-76
2021/04/05 02:22:52;;;;;;;36.10;19.33;;;6.40;99.90;;;;;;4975794;28;20429;-76
2021/04/05 02:25:20;;;;;;;37.20;19.07;;;6.40;99.90;;;;;;4977835;28;21016;-75
2021/04/05 02:27:47;;;;;;;37.90;19.43;;;6.40;99.90;;;;;;4974935;28;20507;-75
2021/04/05 02:30:24;;;;;;;28.97;17.63;;;6.40;99.90;;;;;;4982503;28;20484;-76
2021/04/05 02:33:01;;;;;;;31.30;18.10;;;6.30;99.90;;;;;;4991723;28;21162;-76
2021/04/05 02:35:29;;;;;;;27.83;17.67;;;6.30;99.90;;;;;;4983142;28;20536;-76
2021/04/05 02:37:56;;;;;;;33.57;17.73;;;6.40;99.90;;;;;;4987589;28;20440;-76
2021/04/05 02:40:23;;;;;;;38.53;20.57;;;6.30;99.90;;;;;;4974332;28;20448;-75
2021/04/05 02:42:50;;;;;;;30.33;19.57;;;6.40;99.90;;;;;;4986114;28;20443;-76
2021/04/05 02:45:17;;;;;;;34.53;18.20;;;6.30;99.90;;;;;;4980369;28;20788;-76
2021/04/05 02:47:44;;;;;;;29.70;17.33;;;6.40;99.90;;;;;;4974880;28;21023;-74
2021/04/05 02:50:10;;;;;;;38.33;19.50;;;6.30;99.90;;;;;;4982619;28;20448;-75
2021/04/05 02:52:37;;;;;;;29.70;18.60;;;6.40;99.90;;;;;;4974303;28;20430;-76
2021/04/05 02:55:09;;;;;;;33.80;19.40;;;6.40;99.90;;;;;;4992898;28;20443;-75
2021/04/05 02:57:39;;;;;;;36.33;20.10;;;6.40;99.90;;;;;;4984998;28;20543;-77
2021/04/05 03:00:10;;;;;;;35.70;18.87;;;6.30;99.90;;;;;;4987830;28;20993;-77
2021/04/05 03:02:38;;;;;;;29.87;17.47;;;6.40;99.90;;;;;;4984501;28;20433;-77
2021/04/05 03:05:06;;;;;;;41.20;18.07;;;6.40;99.90;;;;;;5000116;28;20432;-77
2021/04/05 03:07:32;;;;;;;26.97;16.73;;;6.40;99.90;;;;;;4992488;28;20444;-76
2021/04/05 03:09:59;;;;;;;37.90;17.30;;;6.40;99.90;;;;;;4976531;28;20449;-77
2021/04/05 03:12:26;;;;;;;29.77;17.23;;;6.30;99.90;;;;;;4980997;28;20420;-77
2021/04/05 03:14:52;;;;;;;39.70;17.27;;;6.40;99.90;;;;;;4980790;28;20424;-77
2021/04/05 03:17:19;;;;;;;35.53;18.03;;;6.40;99.90;;;;;;4973523;28;20437;-76
2021/04/05 03:19:45;;;;;;;38.90;18.70;;;6.40;99.90;;;;;;4972871;28;20824;-78
2021/04/05 03:22:12;;;;;;;33.43;17.67;;;6.40;99.90;;;;;;4992288;28;20459;-78
2021/04/05 03:24:38;;;;;;;27.23;16.07;;;6.40;99.90;;;;;;4987656;28;20437;-77
2021/04/05 03:27:04;;;;;;;30.10;17.20;;;6.40;99.90;;;;;;4973554;28;20456;-78
2021/04/05 03:29:33;;;;;;;34.60;16.23;;;6.40;99.90;;;;;;4973972;28;20453;-78
2021/04/05 03:32:01;;;;;;;34.97;18.20;;;6.50;99.90;;;;;;4990622;28;20411;-78
2021/04/05 03:34:28;;;;;;;28.93;15.73;;;6.40;99.90;;;;;;4976718;28;20432;-78
2021/04/05 03:37:04;;;;;;;25.23;16.07;;;6.50;99.90;;;;;;4961994;28;20506;-77
2021/04/05 03:39:30;;;;;;;39.37;18.07;;;6.50;99.90;;;;;;4976597;28;20467;-79
2021/04/05 03:42:05;;;;;;;31.67;16.17;;;6.50;99.90;;;;;;4986858;28;20433;-78
2021/04/05 03:44:58;;;;;;;31.60;15.60;;;6.60;99.90;;;;;;4975436;28;20180;-76
2021/04/05 03:47:31;;;;;;;35.70;17.47;;;6.50;99.90;;;;;;4999948;28;20943;-77
2021/04/05 03:50:18;;;;;;;27.50;16.40;;;6.60;99.90;;;;;;4968354;28;20443;-77
2021/04/05 03:52:55;;;;;;;26.63;17.67;;;6.60;99.90;;;;;;4975028;28;20456;-78
2021/04/05 03:55:26;;;;;;;31.30;16.97;;;6.50;99.90;;;;;;5016456;28;20467;-77
2021/04/05 03:57:55;;;;;;;24.47;16.70;;;6.50;99.90;;;;;;4973397;28;20441;-78
2021/04/05 04:00:23;;;;;;;26.07;14.77;;;6.50;99.90;;;;;;4972845;28;20479;-77
2021/04/05 04:02:52;;;;;;;32.90;18.60;;;6.60;99.90;;;;;;4972998;28;20432;-78
2021/04/05 04:05:31;;;;;;;31.13;15.03;;;6.60;99.90;;;;;;4989140;28;20459;-77
2021/04/05 04:10:28;;;;;;;28.27;14.10;;;6.70;99.90;;;;;;4976594;28;20448;-78
2021/04/05 04:12:55;;;;;;;23.77;15.23;;;6.70;99.90;;;;;;4978800;28;20510;-77
2021/04/05 04:15:22;;;;;;;28.90;15.13;;;6.70;99.90;;;;;;4973995;28;20433;-77
2021/04/05 04:17:50;;;;;;;30.57;14.37;;;6.70;99.90;;;;;;4982904;28;20817;-77
2021/04/05 04:20:17;;;;;;;21.03;14.37;;;6.70;99.90;;;;;;4985572;28;20453;-77
2021/04/05 04:22:45;;;;;;;35.50;15.07;;;6.80;99.90;;;;;;5013325;28;21020;-77
2021/04/05 04:25:11;;;;;;;25.80;14.57;;;6.80;99.90;;;;;;4974583;28;20432;-77
2021/04/05 04:27:37;;;;;;;27.93;16.40;;;6.80;99.90;;;;;;4991348;28;20472;-77
2021/04/05 04:30:05;;;;;;;26.70;15.47;;;6.80;99.90;;;;;;4995457;28;20475;-78
2021/04/05 04:32:31;;;;;;;27.57;16.00;;;6.80;99.90;;;;;;4984362;28;20524;-78
2021/04/05 04:34:57;;;;;;;28.20;14.80;;;6.80;99.90;;;;;;4977931;28;20871;-78
2021/04/05 04:37:23;;;;;;;23.97;14.43;;;6.80;99.90;;;;;;4981180;28;20444;-78
2021/04/05 04:39:49;;;;;;;31.17;16.53;;;6.80;99.90;;;;;;4976109;28;20201;-77
2021/04/05 04:42:15;;;;;;;31.40;15.70;;;6.90;99.90;;;;;;4984038;28;20443;-78
2021/04/05 04:44:41;;;;;;;31.97;17.53;;;6.90;99.90;;;;;;4983121;28;20440;-78
2021/04/05 04:47:07;;;;;;;26.30;16.93;;;6.90;99.90;;;;;;4981803;28;20451;-78
2021/04/05 04:49:33;;;;;;;28.23;15.07;;;6.90;99.90;;;;;;4985313;28;20447;-78
2021/04/05 04:51:59;;;;;;;29.13;16.13;;;6.80;99.90;;;;;;4986772;28;20165;-78
2021/04/05 04:54:25;;;;;;;30.93;16.13;;;6.80;99.90;;;;;;5011533;28;20428;-77
2021/04/05 04:56:51;;;;;;;27.63;17.83;;;6.90;99.90;;;;;;4991585;28;20197;-77
2021/04/05 04:59:16;;;;;;;32.60;19.23;;;6.90;99.90;;;;;;4989420;28;20939;-77
2021/04/05 05:01:46;;;;;;;25.97;16.50;;;6.80;99.90;;;;;;4986080;28;20427;-77
2021/04/05 05:04:18;;;;;;;28.27;16.67;;;6.80;99.90;;;;;;4988161;28;20173;-78
2021/04/05 05:06:44;;;;;;;31.67;16.17;;;6.90;99.90;;;;;;5008409;28;20570;-78
2021/04/05 05:09:10;;;;;;;33.43;16.83;;;6.90;99.90;;;;;;4976048;28;20420;-78
2021/04/05 05:11:36;;;;;;;27.57;14.80;;;6.90;99.90;;;;;;4975862;28;20413;-78
2021/04/05 05:14:02;;;;;;;30.27;17.30;;;6.90;99.90;;;;;;4975569;28;20425;-78
2021/04/05 05:16:27;;;;;;;32.63;18.47;;;6.90;99.90;;;;;;4986908;28;20477;-77
2021/04/05 05:18:58;;;;;;;34.30;17.23;;;6.90;99.90;;;;;;4991064;28;20432;-77
2021/04/05 05:21:33;;;;;;;32.43;17.30;;;6.80;99.90;;;;;;4977228;28;20229;-77
2021/04/05 05:24:04;;;;;;;37.40;19.33;;;6.90;99.90;;;;;;4974359;28;20435;-77
2021/04/05 05:26:32;;;;;;;26.73;17.73;;;6.90;99.90;;;;;;4993786;28;20442;-77
2021/04/05 05:29:03;;;;;;;33.87;18.80;;;6.90;99.90;;;;;;4975030;28;20433;-77
2021/04/05 05:31:28;;;;;;;32.13;18.77;;;6.90;99.90;;;;;;4991014;28;20510;-77
2021/04/05 05:33:54;;;;;;;32.87;19.20;;;6.90;99.90;;;;;;4983800;28;20503;-77
2021/04/05 05:36:20;;;;;;;28.13;16.57;;;6.90;99.90;;;;;;4989769;28;20177;-77
2021/04/05 05:38:46;;;;;;;31.10;18.13;;;6.90;99.90;;;;;;4979059;28;20181;-77
2021/04/05 05:41:37;;;;;;;31.40;18.63;;;6.90;99.90;;;;;;5010857;28;20233;-77
2021/04/05 05:44:14;;;;;;;35.00;21.20;;;6.80;99.90;;;;;;5002091;28;20791;-76
2021/04/05 05:46:44;;;;;;;33.73;20.80;;;6.80;99.90;;;;;;4981577;28;20498;-77
2021/04/05 05:49:15;;;;;;;33.47;19.80;;;6.70;99.90;;;;;;4985878;28;20833;-76
2021/04/05 05:51:56;;;;;;;30.40;18.57;;;6.70;99.90;;;;;;5018546;28;20822;-77
2021/04/05 05:54:56;;;;;;;37.87;20.80;;;6.80;99.90;;;;;;4979978;28;20432;-77
2021/04/05 05:57:37;;;;;;;31.43;18.80;;;6.70;99.90;;;;;;4977492;28;20429;-77
2021/04/05 06:00:21;;;;;;;35.70;19.77;;;6.60;99.90;;;;;;4983850;28;20978;-76
2021/04/05 06:03:24;;;;;;;36.77;21.40;;;6.60;99.90;;;;;;5023026;28;20973;-75
2021/04/05 06:06:16;;;;;;;34.80;20.83;;;6.50;99.90;;;;;;4979750;28;20428;-76
2021/04/05 06:09:26;;;;;;;41.40;21.80;;;6.50;99.90;;;;;;4987567;28;20458;-78
2021/04/05 06:11:57;;;;;;;41.83;22.20;;;6.60;99.90;;;;;;4954965;28;20432;-75
2021/04/05 06:14:48;;;;;;;35.40;21.80;;;6.60;99.90;;;;;;4963700;28;20413;-77
2021/04/05 06:17:38;;;;;;;47.57;23.60;;;6.60;99.90;;;;;;4979068;28;20462;-78
2021/04/05 06:20:25;;;;;;;36.90;21.73;;;6.50;99.90;;;;;;4992303;28;20783;-77
2021/04/05 06:23:15;;;;;;;31.87;21.03;;;6.50;99.90;;;;;;4989558;28;20435;-78
2021/04/05 06:25:53;;;;;;;42.10;21.83;;;6.50;99.90;;;;;;4980905;28;20841;-77
2021/04/05 06:28:33;;;;;;;36.50;23.37;;;6.50;99.90;;;;;;4994651;28;20496;-78
2021/04/05 06:31:04;;;;;;;43.50;22.77;;;6.40;99.90;;;;;;4991377;28;20444;-77
2021/04/05 06:33:45;;;;;;;36.13;20.50;;;6.40;99.90;;;;;;4983199;28;20433;-78
2021/04/05 06:36:53;;;;;;;48.70;24.00;;;6.40;99.90;;;;;;4982861;28;20763;-78
2021/04/05 06:39:24;;;;;;;38.57;24.13;;;6.40;99.90;;;;;;4969639;28;20812;-78
2021/04/05 06:42:23;;;;;;;45.30;23.60;;;6.50;99.90;;;;;;4977138;28;20846;-78
2021/04/05 06:45:17;;;;;;;40.97;23.27;;;6.50;99.90;;;;;;4990684;28;20472;-78
2021/04/05 06:47:55;;;;;;;45.30;25.47;;;6.40;99.90;;;;;;4983298;28;20475;-77
2021/04/05 06:50:38;;;;;;;59.80;26.80;;;6.30;99.90;;;;;;5004283;28;20460;-78
2021/04/05 06:53:39;;;;;;;51.53;25.80;;;6.20;99.90;;;;;;5005694;28;20810;-78
2021/04/05 06:56:14;;;;;;;47.07;26.97;;;6.30;99.90;;;;;;4979082;28;20447;-78
2021/04/05 06:58:59;;;;;;;51.60;28.77;;;6.20;99.90;;;;;;5015805;28;20792;-78
2021/04/05 07:01:36;;;;;;;56.90;30.60;;;6.20;99.90;;;;;;4987838;28;20514;-78
2021/04/05 07:04:43;;;;;;;58.97;29.97;;;6.10;99.90;;;;;;4984507;28;20429;-78
2021/04/05 07:07:28;;;;;;;46.10;27.50;;;6.20;99.90;;;;;;4963032;28;20629;-77
2021/04/05 07:10:09;;;;;;;53.00;27.00;;;6.20;99.90;;;;;;5014605;28;20454;-78
2021/04/05 07:13:03;;;;;;;58.70;29.47;;;6.30;99.90;;;;;;5025196;28;20454;-77
2021/04/05 07:15:35;;;;;;;48.27;30.23;;;6.30;99.90;;;;;;4983345;28;20810;-77
2021/04/05 07:18:11;;;;;;;46.73;29.07;;;6.40;99.90;;;;;;4975580;28;20835;-78
2021/04/05 07:21:02;;;;;;;53.73;28.50;;;6.40;99.90;;;;;;4979867;28;20847;-78
2021/04/05 07:23:34;;;;;;;52.90;29.33;;;6.30;99.90;;;;;;4980204;28;20421;-78
2021/04/05 07:26:14;;;;;;;47.70;27.67;;;6.40;99.90;;;;;;4991291;28;20421;-78
2021/04/05 07:29:02;;;;;;;48.10;27.23;;;6.50;99.90;;;;;;4975909;28;20472;-78
2021/04/05 07:32:02;;;;;;;45.13;25.13;;;6.50;99.90;;;;;;4975969;28;20449;-77
2021/04/05 07:34:40;;;;;;;51.83;26.10;;;6.50;99.90;;;;;;5004121;28;20422;-78
2021/04/05 07:37:31;;;;;;;58.37;29.70;;;6.50;99.90;;;;;;4973916;28;20428;-78
2021/04/05 07:40:12;;;;;;;42.43;25.10;;;6.50;99.90;;;;;;4983416;28;20441;-78
2021/04/05 07:42:55;;;;;;;37.30;24.33;;;6.60;99.90;;;;;;4991099;28;20425;-78
2021/04/05 07:45:37;;;;;;;46.80;27.10;;;6.70;99.90;;;;;;4975793;28;20470;-78
2021/04/05 07:48:18;;;;;;;43.70;25.67;;;6.80;99.90;;;;;;5007327;28;20461;-78
2021/04/05 07:50:51;;;;;;;43.63;25.33;;;6.90;99.90;;;;;;4975768;28;20449;-78
2021/04/05 07:53:32;;;;;;;51.27;26.80;;;6.90;99.90;;;;;;4975746;28;20445;-78
2021/04/05 07:56:13;;;;;;;49.00;22.97;;;7.00;99.90;;;;;;4975652;28;20537;-78
2021/04/05 07:59:16;;;;;;;47.70;24.10;;;7.00;99.90;;;;;;4974767;28;20448;-78
2021/04/05 08:01:57;;;;;;;37.17;23.47;;;7.00;99.90;;;;;;4982799;28;20440;-78
2021/04/05 08:04:45;;;;;;;40.87;23.70;;;7.10;99.90;;;;;;4976154;28;20479;-78
2021/04/05 08:07:26;;;;;;;43.80;25.70;;;7.10;99.90;;;;;;4983094;28;20507;-78
2021/04/05 08:10:06;;;;;;;33.13;22.57;;;7.10;99.90;;;;;;4986620;28;20523;-78
2021/04/05 08:12:37;;;;;;;38.27;22.70;;;7.10;99.90;;;;;;4976488;28;20441;-78
2021/04/05 08:15:35;;;;;;;34.43;23.57;;;7.20;99.90;;;;;;4974961;28;20433;-77
2021/04/05 08:18:19;;;;;;;41.93;25.07;;;7.20;99.90;;;;;;4966844;28;20929;-78
2021/04/05 08:21:01;;;;;;;45.10;24.40;;;7.20;99.90;;;;;;5000582;28;20546;-78
2021/04/05 08:23:50;;;;;;;41.23;23.13;;;7.30;99.90;;;;;;4985869;28;20447;-78
2021/04/05 08:26:43;;;;;;;38.03;23.50;;;7.50;99.90;;;;;;4994582;28;20444;-78
2021/04/05 08:29:27;;;;;;;35.87;21.00;;;7.60;99.90;;;;;;5012252;28;20420;-78
2021/04/05 08:32:04;;;;;;;12.63;9.53;;;7.50;99.90;;;;;;5007988;28;20926;-78
2021/04/05 08:35:07;;;;;;;7.70;4.40;;;7.00;99.90;;;;;;5005772;28;20436;-78
2021/04/05 08:38:10;;;;;;;8.80;4.87;;;6.60;99.90;;;;;;4975391;28;20436;-78
2021/04/05 08:40:58;;;;;;;9.67;4.90;;;6.40;99.90;;;;;;4985641;28;20510;-78
2021/04/05 08:43:36;;;;;;;6.10;3.93;;;6.20;99.90;;;;;;4985331;28;20432;-77
2021/04/05 08:46:12;;;;;;;6.40;3.97;;;5.90;99.90;;;;;;4980144;28;20443;-78
2021/04/05 08:48:41;;;;;;;5.10;3.57;;;5.80;99.90;;;;;;4980274;28;20460;-78
2021/04/05 08:51:31;;;;;;;5.63;3.87;;;5.80;99.90;;;;;;4975244;28;20471;-78
2021/04/05 08:53:59;;;;;;;6.30;3.67;;;5.70;99.90;;;;;;5004268;28;20520;-78
2021/04/05 08:56:44;;;;;;;5.53;3.30;;;5.80;99.90;;;;;;4987377;28;20448;-78
2021/04/05 08:59:37;;;;;;;4.20;3.30;;;5.80;99.90;;;;;;4993306;28;20457;-78
2021/04/05 09:02:21;;;;;;;5.63;2.97;;;5.80;99.90;;;;;;4972473;28;20416;-78
2021/04/05 09:04:48;;;;;;;7.87;3.00;;;5.80;99.90;;;;;;4973650;28;20428;-78
2021/04/05 09:07:39;;;;;;;5.03;4.20;;;5.80;99.90;;;;;;4987027;28;20828;-78
2021/04/05 09:10:07;;;;;;;8.53;3.33;;;5.80;99.90;;;;;;4971854;28;20456;-76
2021/04/05 09:12:37;;;;;;;5.60;3.00;;;5.80;99.90;;;;;;4983479;28;20438;-76
2021/04/05 09:15:28;;;;;;;4.50;2.97;;;5.80;99.90;;;;;;4979707;28;21052;-77
2021/04/05 09:18:23;;;;;;;8.13;2.90;;;5.90;99.90;;;;;;4991337;28;20438;-78
2021/04/05 09:21:26;;;;;;;4.73;3.10;;;5.90;99.90;;;;;;4986267;28;20846;-78
2021/04/05 09:24:09;;;;;;;3.20;2.50;;;5.90;99.90;;;;;;4990572;28;20440;-77
2021/04/05 09:26:58;;;;;;;4.63;2.67;;;5.80;99.90;;;;;;4975482;28;20425;-77
2021/04/05 09:29:42;;;;;;;4.50;2.10;;;5.90;99.90;;;;;;4971288;28;20444;-78
2021/04/05 09:32:40;;;;;;;4.80;2.13;;;5.90;99.90;;;;;;4982622;28;20417;-78
2021/04/05 09:35:08;;;;;;;5.97;2.10;;;6.00;99.90;;;;;;4996949;28;20926;-78
2021/04/05 09:37:46;;;;;;;4.73;1.70;;;6.00;99.90;;;;;;4991967;28;20427;-78
2021/04/05 09:40:31;;;;;;;4.87;2.13;;;5.90;99.90;;;;;;4991341;28;20428;-76
2021/04/05 09:43:15;;;;;;;5.40;2.07;;;6.00;99.90;;;;;;4973477;28;20512;-76
2021/04/05 09:46:06;;;;;;;2.17;1.10;;;6.00;99.90;;;;;;4974865;28;20892;-76
2021/04/05 09:49:12;;;;;;;2.23;1.90;;;5.70;99.90;;;;;;4972718;28;20463;-76
2021/04/05 09:51:50;;;;;;;2.90;1.40;;;5.60;99.90;;;;;;4975391;28;20930;-76
2021/04/05 09:54:15;;;;;;;2.73;1.10;;;5.50;99.90;;;;;;4975580;28;20413;-76
2021/04/05 09:56:53;;;;;;;1.70;1.17;;;5.30;99.90;;;;;;4975420;28;20440;-75
2021/04/05 09:59:22;;;;;;;1.67;1.27;;;5.20;99.90;;;;;;4970604;28;20178;-75
2021/04/05 10:01:52;;;;;;;3.00;1.80;;;5.10;99.90;;;;;;4975302;28;20929;-75
2021/04/05 10:04:24;;;;;;;7.17;1.97;;;4.90;99.90;;;;;;4975215;28;20428;-76
2021/04/05 10:06:52;;;;;;;4.97;1.90;;;4.80;99.90;;;;;;4975135;28;20405;-76
2021/04/05 10:09:20;;;;;;;5.00;1.77;;;4.80;99.90;;;;;;4973415;28;20494;-76
2021/04/05 10:11:46;;;;;;;12.00;1.97;;;4.80;99.90;;;;;;4975115;28;20436;-76
2021/04/05 10:14:21;;;;;;;11.90;2.67;;;4.70;99.90;;;;;;4974951;28;20451;-76
2021/04/05 10:16:55;;;;;;;5.67;1.93;;;4.80;99.90;;;;;;4980935;28;20436;-76
2021/04/05 10:19:30;;;;;;;6.53;1.83;;;4.70;99.90;;;;;;4987087;28;20455;-76
2021/04/05 10:22:14;;;;;;;12.27;2.70;;;4.60;99.90;;;;;;4994627;28;20971;-77
2021/04/05 10:24:43;;;;;;;9.73;3.00;;;4.60;99.90;;;;;;4980580;28;20879;-77
2021/04/05 10:27:10;;;;;;;13.73;3.10;;;4.60;99.90;;;;;;4985639;28;20888;-77
2021/04/05 10:29:37;;;;;;;6.10;2.53;;;4.60;99.90;;;;;;4991196;28;20451;-78
2021/04/05 10:32:05;;;;;;;9.90;2.20;;;4.50;99.90;;;;;;4988534;28;20424;-78
2021/04/05 10:34:34;;;;;;;9.23;2.13;;;4.60;99.90;;;;;;4993288;28;21009;-78
2021/04/05 10:37:14;;;;;;;6.70;2.67;;;4.60;99.90;;;;;;4989140;28;20416;-78
2021/04/05 10:39:47;;;;;;;12.23;2.63;;;4.60;99.90;;;;;;4977655;28;20497;-78
2021/04/05 10:42:20;;;;;;;7.20;2.23;;;4.90;99.90;;;;;;4978128;28;20949;-78
2021/04/05 10:44:47;;;;;;;3.20;1.63;;;5.00;99.90;;;;;;4978507;28;20814;-77
2021/04/05 10:47:22;;;;;;;7.20;2.47;;;5.00;99.90;;;;;;4982256;28;20460;-78
2021/04/05 10:49:51;;;;;;;5.20;1.73;;;5.00;99.90;;;;;;4990999;28;20447;-77
2021/04/05 10:52:23;;;;;;;7.87;2.17;;;5.00;99.90;;;;;;4988224;28;20921;-76
2021/04/05 10:54:52;;;;;;;5.47;1.87;;;5.10;99.90;;;;;;4978145;28;20914;-76
2021/04/05 10:57:32;;;;;;;7.03;2.53;;;5.20;99.90;;;;;;4986926;28;20969;-76
2021/04/05 11:00:00;;;;;;;11.87;3.20;;;5.30;99.90;;;;;;4967453;28;20439;-76
2021/04/05 11:02:43;;;;;;;6.57;2.10;;;5.20;99.90;;;;;;4985623;28;20421;-78
2021/04/05 11:05:11;;;;;;;7.77;2.83;;;5.30;99.90;;;;;;4980868;28;20431;-77
2021/04/05 11:07:39;;;;;;;14.50;3.23;;;5.30;99.90;;;;;;4983961;28;21049;-78
2021/04/05 11:10:16;;;;;;;6.17;2.70;;;5.30;99.90;;;;;;4993393;28;20953;-78
2021/04/05 11:12:46;;;;;;;12.23;3.30;;;5.30;99.90;;;;;;4990376;28;20435;-77
2021/04/05 11:15:15;;;;;;;5.83;2.77;;;5.40;99.90;;;;;;4984700;28;20435;-76
2021/04/05 11:17:43;;;;;;;9.43;2.90;;;5.50;99.90;;;;;;5018505;28;20427;-76
2021/04/05 11:20:11;;;;;;;6.40;2.77;;;5.70;99.90;;;;;;4991309;28;20451;-76
2021/04/05 11:22:39;;;;;;;6.73;3.67;;;5.50;99.90;;;;;;4988928;28;20444;-78
2021/04/05 11:25:11;;;;;;;9.93;2.40;;;5.60;99.90;;;;;;4990421;28;20522;-79
2021/04/05 11:27:48;;;;;;;5.17;2.77;;;5.60;99.90;;;;;;4978564;28;20488;-78
2021/04/05 11:30:23;;;;;;;6.67;2.20;;;5.50;99.90;;;;;;4973408;28;20444;-78
2021/04/05 11:32:50;;;;;;;5.23;1.53;;;5.20;99.90;;;;;;4974890;28;20470;-77
2021/04/05 11:35:18;;;;;;;2.00;1.00;;;4.20;99.90;;;;;;4988100;28;20418;-76
2021/04/05 11:37:46;;;;;;;1.83;1.40;;;3.60;99.90;;;;;;4973888;28;20456;-76
2021/04/05 11:40:16;;;;;;;1.37;0.87;;;3.30;99.90;;;;;;4972807;28;20458;-75
2021/04/05 11:42:47;;;;;;;2.17;1.43;;;3.20;99.90;;;;;;4972324;28;20435;-76
2021/04/05 11:45:31;;;;;;;3.03;1.27;;;3.20;99.90;;;;;;4973195;28;20424;-76
2021/04/05 11:47:58;;;;;;;5.57;1.10;;;3.20;99.90;;;;;;4973174;28;20467;-76
2021/04/05 11:50:26;;;;;;;4.33;1.43;;;3.40;99.90;;;;;;4972995;28;20539;-76
2021/04/05 11:52:55;;;;;;;3.00;1.00;;;3.60;99.90;;;;;;4972974;28;20535;-76
2021/04/05 11:55:31;;;;;;;1.90;1.20;;;3.80;99.90;;;;;;4973199;28;20440;-76
2021/04/05 11:58:11;;;;;;;2.50;1.70;;;4.10;99.90;;;;;;4973314;28;20483;-76
2021/04/05 12:00:40;;;;;;;4.37;1.53;;;4.40;99.90;;;;;;4972686;28;20834;-76
2021/04/05 12:03:14;;;;;;;3.70;1.30;;;4.70;99.90;;;;;;4973180;28;20752;-76
2021/04/05 12:06:04;;;;;;;5.33;1.60;;;5.20;99.90;;;;;;4988190;28;20425;-77
2021/04/05 12:08:52;;;;;;;5.33;1.60;;;5.70;99.90;;;;;;4962213;28;20547;-77
2021/04/05 12:11:20;;;;;;;4.33;1.83;;;6.10;99.90;;;;;;4972547;28;20440;-78
2021/04/05 12:13:54;;;;;;;3.50;1.63;;;6.30;99.90;;;;;;4972967;28;20444;-79
2021/04/05 12:16:29;;;;;;;6.13;2.10;;;6.50;99.90;;;;;;4976996;28;20500;-79
2021/04/05 12:18:56;;;;;;;3.53;1.60;;;6.70;99.90;;;;;;4993369;28;20428;-78
2021/04/05 12:21:27;;;;;;;4.03;1.67;;;6.70;99.90;;;;;;4979704;28;20437;-78
2021/04/05 12:24:04;;;;;;;3.60;1.40;;;6.90;99.90;;;;;;4984518;28;20558;-77
2021/04/05 12:26:32;;;;;;;4.80;2.00;;;6.80;99.90;;;;;;4979432;28;20436;-77
2021/04/05 12:29:09;;;;;;;3.73;2.43;;;6.90;99.90;;;;;;4984400;28;20965;-77
2021/04/05 12:31:37;;;;;;;9.23;2.00;;;6.70;99.90;;;;;;4980267;28;20450;-77
2021/04/05 12:34:14;;;;;;;4.53;1.30;;;6.70;99.90;;;;;;4977471;28;20424;-78
2021/04/05 12:36:41;;;;;;;4.03;2.20;;;6.80;99.90;;;;;;4970166;28;21201;-78
2021/04/05 12:39:12;;;;;;;3.57;1.83;;;7.00;99.90;;;;;;4983659;28;20431;-76
2021/04/05 12:41:41;;;;;;;4.13;1.83;;;7.20;99.90;;;;;;4973112;28;20428;-76
2021/04/05 12:44:11;;;;;;;6.07;2.33;;;7.10;99.90;;;;;;4982562;28;20432;-76
2021/04/05 12:46:40;;;;;;;5.87;2.07;;;7.00;99.90;;;;;;4992887;28;20434;-78
2021/04/05 12:49:06;;;;;;;2.50;2.03;;;6.80;99.90;;;;;;4996996;28;21050;-78
2021/04/05 12:51:33;;;;;;;32.00;19.03;;;6.60;99.90;;;;;;4989396;28;20966;-79
2021/04/05 12:54:01;;;;;;;11.17;7.17;;;5.90;99.90;;;;;;4982642;28;20711;-76
2021/04/05 12:56:28;;;;;;;6.93;2.03;;;5.80;99.90;;;;;;4985376;28;20457;-77
2021/04/05 12:58:55;;;;;;;4.60;2.20;;;5.60;99.90;;;;;;5000715;28;20435;-78
2021/04/05 13:01:47;;;;;;;7.03;2.60;;;5.40;99.90;;;;;;5015099;28;20516;-79
2021/04/05 13:04:20;;;;;;;4.63;2.27;;;5.30;99.90;;;;;;4980306;28;20938;-78
2021/04/05 13:06:52;;;;;;;10.67;2.60;;;5.50;99.90;;;;;;4979809;28;20786;-78
2021/04/05 13:09:24;;;;;;;5.13;2.10;;;5.50;99.90;;;;;;4978782;28;20500;-78
2021/04/05 13:12:02;;;;;;;7.87;2.20;;;5.60;99.90;;;;;;4981246;28;20411;-78
2021/04/05 13:14:33;;;;;;;4.50;2.40;;;6.40;99.90;;;;;;4979209;28;20413;-78
2021/04/05 13:17:10;;;;;;;7.63;2.80;;;7.20;99.90;;;;;;4979484;28;20413;-79
2021/04/05 13:19:44;;;;;;;5.60;2.00;;;8.20;99.90;;;;;;4979970;28;20490;-78